Observations for BARCELONA AIRPORT, Spain (LEBL)

LEBL 192000Z 21006KT 9999 FEW020 22/18 Q1007 NOSIG  
LEBL 191930Z 21009KT 9999 FEW020 22/19 Q1007 NOSIG  
LEBL 191900Z 21007KT 9999 FEW020 22/18 Q1007 NOSIG  
LEBL 191830Z 21008KT 9999 FEW018 22/18 Q1007 NOSIG  
LEBL 191800Z 21007KT 9999 FEW018 22/17 Q1007 NOSIG  
LEBL 191730Z 21008KT 9999 FEW018 22/18 Q1007 NOSIG  
LEBL 191700Z 21008KT 170V230 9999 FEW018 22/17 Q1007 NOSIG  
LEBL 191630Z 21009KT 9999 FEW018 22/18 Q1007 NOSIG  
LEBL 191600Z 22011KT 9999 FEW018 22/18 Q1007 NOSIG  
LEBL 191530Z 22012KT 9999 FEW018 23/18 Q1007 NOSIG  
LEBL 191500Z 22015KT 9999 FEW017 23/18 Q1007 NOSIG  
LEBL 191430Z 21015KT 9999 FEW018 24/18 Q1007 NOSIG  
LEBL 191400Z 21013KT 9999 FEW017 24/19 Q1007 NOSIG  
LEBL 191330Z 21014KT 9999 FEW016 24/19 Q1007 NOSIG  
LEBL 191300Z 20013KT 9999 FEW017 24/19 Q1007 NOSIG  
LEBL 191230Z 20013KT 9999 FEW018 24/19 Q1008 NOSIG  
LEBL 191200Z 21012KT 170V230 9999 FEW015 24/19 Q1008 NOSIG  
LEBL 191130Z 21012KT 9999 FEW015 24/19 Q1009 NOSIG  
LEBL 191100Z 21012KT 9999 FEW013 SCT030 24/20 Q1009 NOSIG   
LEBL 191030Z 21013KT 9999 FEW013 BKN030 23/20 Q1009 NOSIG   
LEBL 191000Z 00000KT 9999 FEW013 SCT020 BKN030 24/20 Q1009 NOSIG
LEBL 190930Z 00000KT 9999 FEW017 21/17 Q1010 NOSIG  
LEBL 190900Z 33003KT 290V020 9999 FEW018 20/15 Q1010 NOSIG  
LEBL 190830Z 32003KT 270V010 9999 FEW018 19/14 Q1010 NOSIG  
LEBL 190800Z 33005G15KT 300V020 9999 FEW018 19/14 Q1010 NOSIG   
LEBL 190730Z 33007KT 280V010 9999 FEW016 17/13 Q1010 NOSIG  
LEBL 190700Z 33009G19KT 300V360 9999 FEW015 SCT018 17/13 Q1010 NOSIG
LEBL 190630Z 33007KT 280V350 9999 FEW020 16/13 Q1009 NOSIG  
LEBL 190600Z 33008KT 290V350 9999 FEW018 17/13 Q1010 NOSIG  
LEBL 190530Z 33009G20KT 9999 FEW015 16/13 Q1010 NOSIG   
LEBL 190500Z 33008KT 9999 FEW015 16/13 Q1010 NOSIG  
LEBL 190430Z 33008KT 9999 FEW015 16/13 Q1010 NOSIG  
LEBL 190400Z 33008KT 9999 FEW015 17/13 Q1010 NOSIG  
LEBL 190330Z 33009KT 9999 FEW014 17/13 Q1010 NOSIG  
LEBL 190300Z 33008KT 9999 FEW015 SCT018 17/13 Q1010 NOSIG   
LEBL 190230Z 33005KT 9999 BKN019 17/14 Q1010 NOSIG  
LEBL 190200Z 33006KT 9999 SCT020 17/14 Q1011 NOSIG  
LEBL 190130Z 33004KT 9999 FEW020 17/13 Q1011 NOSIG  
LEBL 190100Z 33005KT CAVOK 17/14 Q1011 NOSIG
LEBL 190030Z 32004KT CAVOK 17/14 Q1012 NOSIG
LEBL 190000Z 32003KT CAVOK 17/14 Q1012 NOSIG
LEBL 182330Z VRB02KT 9999 FEW040 18/14 Q1012 NOSIG  
LEBL 182300Z 32004KT 9999 FEW040 18/14 Q1012 NOSIG  
LEBL 182230Z VRB02KT 9999 FEW040 18/14 Q1012 NOSIG  
LEBL 182200Z 28003KT 250V310 9999 FEW040 19/15 Q1013 NOSIG  
LEBL 182130Z 00000KT 9999 FEW040 19/15 Q1013 NOSIG  
LEBL 182100Z 31003KT 9999 FEW040 19/15 Q1013 NOSIG  
LEBL 182030Z 00000KT 9999 FEW040 19/14 Q1013 NOSIG  
LEBL 182000Z VRB02KT 9999 FEW040 20/13 Q1013 NOSIG  
LEBL 181930Z 22006KT 9999 FEW035 21/14 Q1013 NOSIG